createdAt,value
2022-11-05T00:21:07.042Z,96979.06
2022-11-05T00:23:53.683Z,96980.20
2022-11-05T00:26:21.660Z,96990.45
2022-11-05T00:28:49.662Z,96986.48
2022-11-05T00:31:20.096Z,96986.52
2022-11-05T00:33:48.022Z,96986.88
2022-11-05T00:36:16.023Z,96991.71
2022-11-05T00:38:43.941Z,96995.84
2022-11-05T00:41:11.978Z,96992.20
2022-11-05T00:43:58.453Z,96995.15
2022-11-05T00:46:26.568Z,96993.80
2022-11-05T00:49:13.031Z,96996.88
2022-11-05T00:51:41.001Z,96993.34
2022-11-05T00:54:08.934Z,96991.52
2022-11-05T00:56:36.850Z,96991.20
2022-11-05T00:59:05.033Z,96989.46
2022-11-05T01:01:33.264Z,96987.52
2022-11-05T01:04:01.260Z,96982.77
2022-11-05T01:06:29.229Z,96986.34
2022-11-05T01:08:57.273Z,96986.71
2022-11-05T01:11:34.476Z,96987.20
2022-11-05T01:14:11.341Z,96984.52
2022-11-05T01:16:40.682Z,96983.34
2022-11-05T01:19:10.056Z,96981.50
2022-11-05T01:21:38.407Z,96978.23
2022-11-05T01:24:06.804Z,96971.84
2022-11-05T01:26:34.717Z,96966.41
2022-11-05T01:29:02.689Z,96961.13
2022-11-05T01:31:30.962Z,96958.59
2022-11-05T01:34:01.756Z,96961.15
2022-11-05T01:36:30.336Z,96968.42
2022-11-05T01:38:58.232Z,96964.19
2022-11-05T01:41:26.386Z,96959.34
2022-11-05T01:43:57.077Z,96960.89
2022-11-05T01:46:33.113Z,96960.36
2022-11-05T01:49:15.691Z,96956.16
2022-11-05T01:51:45.819Z,96953.66
2022-11-05T01:54:18.350Z,96960.90
2022-11-05T01:57:03.111Z,96961.70
2022-11-05T01:59:37.802Z,96968.91
2022-11-05T02:02:08.006Z,96965.05
2022-11-05T02:05:04.529Z,96962.51
2022-11-05T02:07:33.985Z,96965.40
2022-11-05T02:10:08.890Z,96963.01
2022-11-05T02:12:41.540Z,96965.45
2022-11-05T02:15:14.815Z,96963.44
2022-11-05T02:17:51.955Z,96956.48
2022-11-05T02:20:33.808Z,96954.66
2022-11-05T02:23:29.210Z,96951.04
2022-11-05T02:26:18.556Z,96960.14
2022-11-05T02:28:46.454Z,96965.16
2022-11-05T02:31:32.562Z,96969.59
2022-11-05T02:34:35.731Z,96964.89
2022-11-05T02:37:13.800Z,96963.65
2022-11-05T02:39:56.219Z,96963.27
2022-11-05T02:42:38.600Z,96963.55
2022-11-05T02:45:52.510Z,96967.59
2022-11-05T02:48:35.117Z,96967.64
2022-11-05T02:51:13.674Z,96962.96
2022-11-05T02:54:00.086Z,96945.91
2022-11-05T02:56:32.993Z,96948.81
2022-11-05T02:59:00.885Z,96960.95
2022-11-05T03:01:28.915Z,96954.91
2022-11-05T03:04:01.014Z,96952.10
2022-11-05T03:06:47.691Z,96953.46
2022-11-05T03:09:31.348Z,96947.27
2022-11-05T03:12:14.835Z,96944.38
2022-11-05T03:14:56.085Z,96949.91
2022-11-05T03:17:51.926Z,96950.66
2022-11-05T03:20:32.658Z,96953.58
2022-11-05T03:23:30.083Z,96946.95
2022-11-05T03:26:26.447Z,96950.08
2022-11-05T03:29:13.238Z,96950.61
2022-11-05T03:31:48.487Z,96952.91
2022-11-05T03:34:26.841Z,96960.38
2022-11-05T03:37:00.265Z,96966.14
2022-11-05T03:39:46.065Z,96972.19
2022-11-05T03:42:23.773Z,96975.04
2022-11-05T03:44:58.963Z,96980.59
2022-11-05T03:47:35.802Z,96977.30
2022-11-05T03:50:27.981Z,96974.70
2022-11-05T03:53:05.799Z,96977.19
2022-11-05T03:55:40.197Z,96977.19
2022-11-05T03:58:10.134Z,96977.38
2022-11-05T04:00:38.447Z,96979.80
2022-11-05T04:03:06.476Z,96978.95
2022-11-05T04:05:34.631Z,96970.31
2022-11-05T04:08:21.142Z,96968.48
2022-11-05T04:11:07.730Z,96971.45
2022-11-05T04:13:35.846Z,96967.96
2022-11-05T04:16:22.677Z,96967.39
2022-11-05T04:18:50.583Z,96969.80
2022-11-05T04:21:39.639Z,96973.41
2022-11-05T04:24:10.520Z,96972.73
2022-11-05T04:26:43.846Z,96975.25
2022-11-05T04:29:50.306Z,96974.96
2022-11-05T04:32:18.257Z,96973.29
2022-11-05T04:34:46.629Z,96978.48
2022-11-05T04:37:14.565Z,96981.34
2022-11-05T04:39:42.545Z,96991.63
2022-11-05T04:42:10.480Z,96992.98
2022-11-05T04:44:38.513Z,96988.52
2022-11-05T04:47:06.522Z,96983.35
2022-11-05T04:49:34.594Z,96985.52
2022-11-05T04:52:02.553Z,96986.19
2022-11-05T04:54:30.966Z,96987.60
2022-11-05T04:56:59.044Z,96996.75
2022-11-05T04:59:26.995Z,96995.46
2022-11-05T05:01:54.990Z,96994.05
2022-11-05T05:04:23.016Z,96993.09
2022-11-05T05:06:51.088Z,96987.84
2022-11-05T05:09:19.009Z,96982.66
2022-11-05T05:11:47.053Z,96974.45
2022-11-05T05:14:15.061Z,96978.81
2022-11-05T05:16:42.957Z,96983.10
2022-11-05T05:19:10.961Z,96978.30
2022-11-05T05:21:39.091Z,96975.11
2022-11-05T05:24:13.624Z,96976.78
2022-11-05T05:26:49.689Z,96975.66
2022-11-05T05:29:18.420Z,96971.72
2022-11-05T05:31:46.690Z,96970.64
2022-11-05T05:34:15.119Z,96970.90
2022-11-05T05:36:43.179Z,96970.70
2022-11-05T05:39:11.358Z,96969.73
2022-11-05T05:41:39.534Z,96967.41
2022-11-05T05:44:07.684Z,96965.94
2022-11-05T05:46:35.696Z,96971.98
2022-11-05T05:49:09.444Z,96979.80
2022-11-05T05:51:40.384Z,96983.66
2022-11-05T05:54:08.541Z,96980.11
2022-11-05T05:56:36.531Z,96986.13
2022-11-05T05:59:05.805Z,96991.77
2022-11-05T06:01:33.915Z,96995.77
2022-11-05T06:04:02.145Z,96997.98
2022-11-05T06:06:30.305Z,96997.52
2022-11-05T06:08:58.230Z,97002.39
2022-11-05T06:11:26.724Z,97012.64
2022-11-05T06:13:54.636Z,97019.49
2022-11-05T06:16:22.649Z,97024.09
2022-11-05T06:18:50.546Z,97030.47
2022-11-05T06:21:18.569Z,97038.08
2022-11-05T06:23:48.389Z,97047.92
2022-11-05T06:26:18.661Z,97052.16
2022-11-05T06:28:46.755Z,97056.70
2022-11-05T06:31:15.609Z,97057.09
2022-11-05T06:33:43.518Z,97051.20
2022-11-05T06:36:15.851Z,97049.61
2022-11-05T06:38:43.941Z,97055.27
2022-11-05T06:41:11.878Z,97059.38
2022-11-05T06:43:40.026Z,97059.98
2022-11-05T06:46:09.661Z,97059.27
2022-11-05T06:48:38.275Z,97064.23
2022-11-05T06:51:08.201Z,97066.95
2022-11-05T06:53:36.699Z,97065.06
2022-11-05T06:56:06.368Z,97066.20
2022-11-05T06:58:34.806Z,97065.31
2022-11-05T07:01:10.726Z,97066.06
2022-11-05T07:03:39.213Z,97066.80
2022-11-05T07:06:07.853Z,97066.56
2022-11-05T07:08:38.048Z,97065.38
2022-11-05T07:11:06.252Z,97067.55
2022-11-05T07:13:34.295Z,97066.50
2022-11-05T07:16:02.650Z,97070.23
2022-11-05T07:18:30.609Z,97072.22
2022-11-05T07:20:59.645Z,97075.77
2022-11-05T07:23:27.614Z,97073.76
2022-11-05T07:25:57.034Z,97075.16
2022-11-05T07:28:25.025Z,97073.27
2022-11-05T07:30:54.100Z,97073.85
2022-11-05T07:33:24.396Z,97070.98
2022-11-05T07:35:52.290Z,97070.23
2022-11-05T07:38:20.154Z,97064.38
2022-11-05T07:40:48.279Z,97059.79
2022-11-05T07:43:16.590Z,97064.13
2022-11-05T07:45:45.875Z,97068.34
2022-11-05T07:48:16.889Z,97070.20
2022-11-05T07:50:44.894Z,97069.00
2022-11-05T07:53:15.216Z,97070.45
2022-11-05T07:55:45.974Z,97072.79
2022-11-05T07:58:14.386Z,97070.92
2022-11-05T08:00:42.793Z,97068.95
2022-11-05T08:03:14.525Z,97067.79
2022-11-05T08:05:46.161Z,97065.60
2022-11-05T08:08:16.670Z,97070.05
2022-11-05T08:10:45.005Z,97073.05
2022-11-05T08:13:14.125Z,97078.27
2022-11-05T08:15:43.352Z,97074.34
2022-11-05T08:18:14.667Z,97069.34
2022-11-05T08:20:44.188Z,97065.56
2022-11-05T08:23:12.870Z,97066.77
2022-11-05T08:25:42.015Z,97074.52
2022-11-05T08:28:13.583Z,97076.85
2022-11-05T08:30:41.959Z,97074.32
2022-11-05T08:33:12.549Z,97074.89
2022-11-05T08:35:41.081Z,97073.05
2022-11-05T08:38:13.830Z,97072.27
2022-11-05T08:40:44.265Z,97073.14
2022-11-05T08:43:14.086Z,97070.30
2022-11-05T08:45:42.727Z,97066.98
2022-11-05T08:48:14.973Z,97065.71
2022-11-05T08:50:44.373Z,97065.93
2022-11-05T08:53:12.942Z,97067.48
2022-11-05T08:55:41.299Z,97064.27
2022-11-05T08:58:15.455Z,97068.33
2022-11-05T09:00:45.858Z,97074.11
2022-11-05T09:03:15.114Z,97075.29
2022-11-05T09:05:43.913Z,97069.69
2022-11-05T09:08:17.505Z,97070.98
2022-11-05T09:10:47.008Z,97073.48
2022-11-05T09:13:18.807Z,97065.67
2022-11-05T09:15:49.243Z,97065.67
2022-11-05T09:18:18.917Z,97062.80
2022-11-05T09:20:47.256Z,97061.64
2022-11-05T09:23:15.725Z,97061.27
2022-11-05T09:25:45.049Z,97061.98
2022-11-05T09:28:16.844Z,97066.59
2022-11-05T09:30:48.090Z,97068.73
2022-11-05T09:33:17.986Z,97069.41
2022-11-05T09:35:46.595Z,97069.14
2022-11-05T09:38:15.052Z,97067.05
2022-11-05T09:41:02.737Z,97066.92
2022-11-05T09:43:42.241Z,97060.02
2022-11-05T09:46:25.771Z,97062.33
2022-11-05T09:49:06.947Z,97059.92
2022-11-05T09:51:36.925Z,97057.68
2022-11-05T09:54:05.887Z,97055.59
2022-11-05T09:56:37.598Z,97059.23
2022-11-05T09:59:15.389Z,97060.55
2022-11-05T10:01:43.776Z,97060.64
2022-11-05T10:04:24.179Z,97067.55
2022-11-05T10:07:01.823Z,97066.88
2022-11-05T10:09:51.529Z,97064.09
2022-11-05T10:12:45.037Z,97062.16
2022-11-05T10:15:22.697Z,97061.54
2022-11-05T10:17:56.754Z,97057.67
2022-11-05T10:20:38.019Z,97056.44
2022-11-05T10:23:12.065Z,97052.89
2022-11-05T10:25:44.017Z,97046.64
2022-11-05T10:28:18.519Z,97046.30
2022-11-05T10:30:49.226Z,97043.91
2022-11-05T10:33:28.229Z,97042.45
2022-11-05T10:36:03.636Z,97047.78
2022-11-05T10:38:32.257Z,97046.74
2022-11-05T10:41:18.868Z,97048.67
2022-11-05T10:43:54.049Z,97046.56
2022-11-05T10:46:35.832Z,97044.19
2022-11-05T10:49:15.297Z,97046.45
2022-11-05T10:51:44.121Z,97050.99
2022-11-05T10:54:19.349Z,97044.91
2022-11-05T10:56:48.055Z,97042.34
2022-11-05T10:59:28.384Z,97045.98
2022-11-05T11:02:19.821Z,97049.02
2022-11-05T11:04:53.165Z,97044.98
2022-11-05T11:07:26.059Z,97043.21
2022-11-05T11:09:54.406Z,97041.09
2022-11-05T11:12:27.575Z,97039.91
2022-11-05T11:15:13.691Z,97035.24
2022-11-05T11:17:41.882Z,97034.75
2022-11-05T11:20:30.230Z,97037.89
2022-11-05T11:23:15.849Z,97041.99
2022-11-05T11:25:58.209Z,97043.63
2022-11-05T11:28:36.398Z,97045.59
2022-11-05T11:31:22.381Z,97046.15
2022-11-05T11:33:58.108Z,97044.25
2022-11-05T11:36:36.269Z,97044.21
2022-11-05T11:39:07.129Z,97043.91
2022-11-05T11:41:39.296Z,97040.91
2022-11-05T11:44:16.606Z,97037.35
2022-11-05T11:46:49.589Z,97035.47
2022-11-05T11:49:45.109Z,97035.10
2022-11-05T11:52:25.388Z,97033.19
2022-11-05T11:54:53.753Z,97026.89
2022-11-05T11:57:26.583Z,97027.84
2022-11-05T12:00:12.344Z,97028.43
2022-11-05T12:02:57.274Z,97029.52
2022-11-05T12:06:10.825Z,97034.45
2022-11-05T12:09:06.446Z,97036.58
2022-11-05T12:11:43.693Z,97036.59
2022-11-05T12:14:17.657Z,97034.59
2022-11-05T12:17:02.818Z,97028.05
2022-11-05T12:20:04.151Z,97029.06
2022-11-05T12:23:04.240Z,97029.27
2022-11-05T12:25:35.112Z,97029.53
2022-11-05T12:28:21.095Z,97029.14
2022-11-05T12:30:53.333Z,97029.84
2022-11-05T12:33:34.974Z,97028.36
2022-11-05T12:36:22.722Z,97034.44
2022-11-05T12:38:57.696Z,97032.14
2022-11-05T12:41:37.607Z,97036.83
2022-11-05T12:44:17.878Z,97036.28
2022-11-05T12:46:53.785Z,97041.25
2022-11-05T12:49:42.088Z,97043.00
2022-11-05T12:52:16.152Z,97046.72
2022-11-05T12:55:27.710Z,97050.98
2022-11-05T12:58:08.828Z,97047.39
2022-11-05T13:00:39.794Z,97047.55
2022-11-05T13:03:40.191Z,97044.42
2022-11-05T13:06:11.549Z,97046.42
2022-11-05T13:08:52.040Z,97048.45
2022-11-05T13:11:29.832Z,97051.76
2022-11-05T13:14:23.785Z,97052.15
2022-11-05T13:16:59.086Z,97054.98
2022-11-05T13:19:36.598Z,97055.23
2022-11-05T13:22:13.540Z,97055.84
2022-11-05T13:24:55.494Z,97051.44
2022-11-05T13:27:29.532Z,97051.83
2022-11-05T13:30:04.835Z,97051.02
2022-11-05T13:32:39.444Z,97051.38
2022-11-05T13:35:16.854Z,97054.11
2022-11-05T13:38:07.409Z,97058.55
2022-11-05T13:40:55.541Z,97065.34
2022-11-05T13:44:19.234Z,97065.80
2022-11-05T13:47:21.243Z,97069.18
2022-11-05T13:49:55.038Z,97079.23
2022-11-05T13:53:01.506Z,97082.27
2022-11-05T13:56:00.067Z,97088.93
2022-11-05T13:58:52.602Z,97090.85
2022-11-05T14:01:42.324Z,97094.55
2022-11-05T14:04:44.897Z,97097.86
2022-11-05T14:07:34.509Z,97094.40
2022-11-05T14:10:26.911Z,97095.10
2022-11-05T14:12:56.698Z,97099.19
2022-11-05T14:15:28.503Z,97099.39
2022-11-05T14:18:18.444Z,97096.88
2022-11-05T14:21:03.792Z,97101.95
2022-11-05T14:23:50.246Z,97102.33
2022-11-05T14:26:21.587Z,97106.02
2022-11-05T14:29:03.020Z,97105.73
